sensor_id;sensor_type;location;lat;lon;timestamp;P1;P2;P0
24012;PMS7003;12220;50.194;18.948;2023-11-22T00:00:19;16;13;10
24012;PMS7003;12220;50.194;18.948;2023-11-22T00:02:26;21;20;11
24012;PMS7003;12220;50.194;18.948;2023-11-22T00:04:31;18;15;10
24012;PMS7003;12220;50.194;18.948;2023-11-22T00:06:33;20;19;12
24012;PMS7003;12220;50.194;18.948;2023-11-22T00:08:34;27;21;14
24012;PMS7003;12220;50.194;18.948;2023-11-22T00:10:36;18;18;12
24012;PMS7003;12220;50.194;18.948;2023-11-22T00:12:46;28;26;14
24012;PMS7003;12220;50.194;18.948;2023-11-22T00:14:48;27;22;13
24012;PMS7003;12220;50.194;18.948;2023-11-22T00:16:50;22;18;13
24012;PMS7003;12220;50.194;18.948;2023-11-22T00:18:52;19;15;10
24012;PMS7003;12220;50.194;18.948;2023-11-22T00:21:08;19;13;8
24012;PMS7003;12220;50.194;18.948;2023-11-22T00:30:40;22;20;14
24012;PMS7003;12220;50.194;18.948;2023-11-22T00:37:39;22;19;14
24012;PMS7003;12220;50.194;18.948;2023-11-22T00:44:50;31;20;14
24012;PMS7003;12220;50.194;18.948;2023-11-22T00:49:36;25;22;14
24012;PMS7003;12220;50.194;18.948;2023-11-22T00:54:28;25;22;15
24012;PMS7003;12220;50.194;18.948;2023-11-22T01:01:59;16;15;13
24012;PMS7003;12220;50.194;18.948;2023-11-22T01:14:33;25;23;17
24012;PMS7003;12220;50.194;18.948;2023-11-22T01:16:53;21;21;13
24012;PMS7003;12220;50.194;18.948;2023-11-22T01:22:01;28;20;12
24012;PMS7003;12220;50.194;18.948;2023-11-22T01:24:41;19;18;10
24012;PMS7003;12220;50.194;18.948;2023-11-22T01:29:18;18;18;13
24012;PMS7003;12220;50.194;18.948;2023-11-22T01:34:24;28;21;13
24012;PMS7003;12220;50.194;18.948;2023-11-22T01:39:28;22;19;12
24012;PMS7003;12220;50.194;18.948;2023-11-22T01:41:44;18;17;12
24012;PMS7003;12220;50.194;18.948;2023-11-22T01:44:10;25;23;14
24012;PMS7003;12220;50.194;18.948;2023-11-22T01:53:56;32;27;16
24012;PMS7003;12220;50.194;18.948;2023-11-22T01:59:34;33;28;16
24012;PMS7003;12220;50.194;18.948;2023-11-22T02:06:27;25;22;16
24012;PMS7003;12220;50.194;18.948;2023-11-22T02:08:48;27;24;13
24012;PMS7003;12220;50.194;18.948;2023-11-22T02:13:03;23;21;14
24012;PMS7003;12220;50.194;18.948;2023-11-22T02:15:17;33;26;15
24012;PMS7003;12220;50.194;18.948;2023-11-22T02:17:41;22;22;16
24012;PMS7003;12220;50.194;18.948;2023-11-22T02:20:04;28;26;14
24012;PMS7003;12220;50.194;18.948;2023-11-22T02:22:11;19;16;13
24012;PMS7003;12220;50.194;18.948;2023-11-22T02:36:54;28;22;13
24012;PMS7003;12220;50.194;18.948;2023-11-22T02:39:21;26;26;15
24012;PMS7003;12220;50.194;18.948;2023-11-22T02:54:28;31;29;15
24012;PMS7003;12220;50.194;18.948;2023-11-22T02:59:12;25;24;17
24012;PMS7003;12220;50.194;18.948;2023-11-22T03:04:08;31;22;14
24012;PMS7003;12220;50.194;18.948;2023-11-22T03:11:42;27;24;14
24012;PMS7003;12220;50.194;18.948;2023-11-22T03:24:09;28;26;13
24012;PMS7003;12220;50.194;18.948;2023-11-22T03:26:36;43;29;15
24012;PMS7003;12220;50.194;18.948;2023-11-22T03:34:10;29;23;14
24012;PMS7003;12220;50.194;18.948;2023-11-22T03:44:21;26;22;13
24012;PMS7003;12220;50.194;18.948;2023-11-22T03:56:47;32;27;13
24012;PMS7003;12220;50.194;18.948;2023-11-22T05:15:56;17;15;8
24012;PMS7003;12220;50.194;18.948;2023-11-22T05:25:29;16;12;8
24012;PMS7003;12220;50.194;18.948;2023-11-22T05:40:33;19;15;10
24012;PMS7003;12220;50.194;18.948;2023-11-22T05:42:35;20;17;10
24012;PMS7003;12220;50.194;18.948;2023-11-22T05:44:37;15;14;9
24012;PMS7003;12220;50.194;18.948;2023-11-22T05:46:39;23;18;13
24012;PMS7003;12220;50.194;18.948;2023-11-22T05:48:40;23;15;9
24012;PMS7003;12220;50.194;18.948;2023-11-22T05:50:47;28;22;13
24012;PMS7003;12220;50.194;18.948;2023-11-22T05:52:49;28;26;15
24012;PMS7003;12220;50.194;18.948;2023-11-22T05:54:50;25;21;12
24012;PMS7003;12220;50.194;18.948;2023-11-22T05:56:52;24;22;12
24012;PMS7003;12220;50.194;18.948;2023-11-22T05:59:02;23;18;10
24012;PMS7003;12220;50.194;18.948;2023-11-22T06:01:04;18;15;9
24012;PMS7003;12220;50.194;18.948;2023-11-22T06:03:06;27;21;10
24012;PMS7003;12220;50.194;18.948;2023-11-22T06:05:09;20;17;10
24012;PMS7003;12220;50.194;18.948;2023-11-22T06:07:17;22;15;9
24012;PMS7003;12220;50.194;18.948;2023-11-22T06:09:18;22;16;10
24012;PMS7003;12220;50.194;18.948;2023-11-22T06:11:20;24;17;11
24012;PMS7003;12220;50.194;18.948;2023-11-22T06:13:22;26;21;14
24012;PMS7003;12220;50.194;18.948;2023-11-22T06:15:32;27;20;11
24012;PMS7003;12220;50.194;18.948;2023-11-22T06:17:33;24;23;14
24012;PMS7003;12220;50.194;18.948;2023-11-22T06:19:35;19;16;9
24012;PMS7003;12220;50.194;18.948;2023-11-22T06:21:37;18;15;9
24012;PMS7003;12220;50.194;18.948;2023-11-22T06:23:47;19;18;9
24012;PMS7003;12220;50.194;18.948;2023-11-22T06:25:50;18;12;8
24012;PMS7003;12220;50.194;18.948;2023-11-22T06:27:52;20;20;12
24012;PMS7003;12220;50.194;18.948;2023-11-22T06:29:53;26;22;15
24012;PMS7003;12220;50.194;18.948;2023-11-22T06:32:03;16;13;9
24012;PMS7003;12220;50.194;18.948;2023-11-22T06:34:07;23;20;13
24012;PMS7003;12220;50.194;18.948;2023-11-22T06:36:08;31;24;15
24012;PMS7003;12220;50.194;18.948;2023-11-22T06:38:14;30;24;14
24012;PMS7003;12220;50.194;18.948;2023-11-22T06:40:19;29;24;16
24012;PMS7003;12220;50.194;18.948;2023-11-22T06:42:24;21;19;11
24012;PMS7003;12220;50.194;18.948;2023-11-22T06:44:25;20;20;12
24012;PMS7003;12220;50.194;18.948;2023-11-22T06:46:29;18;16;10
24012;PMS7003;12220;50.194;18.948;2023-11-22T06:48:34;22;19;14
24012;PMS7003;12220;50.194;18.948;2023-11-22T06:50:36;21;19;11
24012;PMS7003;12220;50.194;18.948;2023-11-22T06:52:37;20;18;11
24012;PMS7003;12220;50.194;18.948;2023-11-22T06:54:39;25;17;12
24012;PMS7003;12220;50.194;18.948;2023-11-22T06:56:49;23;22;12
24012;PMS7003;12220;50.194;18.948;2023-11-22T06:58:52;18;18;13
24012;PMS7003;12220;50.194;18.948;2023-11-22T07:00:53;22;18;11
24012;PMS7003;12220;50.194;18.948;2023-11-22T07:02:56;16;14;10
24012;PMS7003;12220;50.194;18.948;2023-11-22T07:05:05;25;17;11
24012;PMS7003;12220;50.194;18.948;2023-11-22T07:07:10;23;21;12
24012;PMS7003;12220;50.194;18.948;2023-11-22T07:09:11;19;17;10
24012;PMS7003;12220;50.194;18.948;2023-11-22T07:11:20;13;13;10
24012;PMS7003;12220;50.194;18.948;2023-11-22T07:13:24;20;16;13
24012;PMS7003;12220;50.194;18.948;2023-11-22T07:15:27;0;0;0
24012;PMS7003;12220;50.194;18.948;2023-11-22T07:17:29;23;22;13
24012;PMS7003;12220;50.194;18.948;2023-11-22T07:19:31;26;23;17
24012;PMS7003;12220;50.194;18.948;2023-11-22T07:21:35;18;17;11
24012;PMS7003;12220;50.194;18.948;2023-11-22T07:23:38;20;16;8
24012;PMS7003;12220;50.194;18.948;2023-11-22T07:25:40;17;16;11
24012;PMS7003;12220;50.194;18.948;2023-11-22T07:27:42;23;22;14
24012;PMS7003;12220;50.194;18.948;2023-11-22T07:29:50;17;16;12
24012;PMS7003;12220;50.194;18.948;2023-11-22T07:31:53;24;21;13
24012;PMS7003;12220;50.194;18.948;2023-11-22T07:33:54;26;22;15
24012;PMS7003;12220;50.194;18.948;2023-11-22T07:35:56;27;24;15
24012;PMS7003;12220;50.194;18.948;2023-11-22T07:38:05;22;20;11
24012;PMS7003;12220;50.194;18.948;2023-11-22T07:40:11;27;18;12
24012;PMS7003;12220;50.194;18.948;2023-11-22T07:42:14;16;14;10
24012;PMS7003;12220;50.194;18.948;2023-11-22T07:44:16;16;15;9
24012;PMS7003;12220;50.194;18.948;2023-11-22T07:46:20;16;12;9
24012;PMS7003;12220;50.194;18.948;2023-11-22T07:48:22;21;21;13
24012;PMS7003;12220;50.194;18.948;2023-11-22T07:50:23;17;16;9
24012;PMS7003;12220;50.194;18.948;2023-11-22T07:52:25;31;25;16
24012;PMS7003;12220;50.194;18.948;2023-11-22T07:54:35;23;22;13
24012;PMS7003;12220;50.194;18.948;2023-11-22T07:56:37;24;20;15
24012;PMS7003;12220;50.194;18.948;2023-11-22T07:58:38;18;17;9
24012;PMS7003;12220;50.194;18.948;2023-11-22T08:00:40;19;18;8
24012;PMS7003;12220;50.194;18.948;2023-11-22T08:02:50;23;21;12
24012;PMS7003;12220;50.194;18.948;2023-11-22T08:04:55;16;15;11
24012;PMS7003;12220;50.194;18.948;2023-11-22T08:06:56;22;17;10
24012;PMS7003;12220;50.194;18.948;2023-11-22T08:08:58;21;20;15
24012;PMS7003;12220;50.194;18.948;2023-11-22T08:11:06;31;23;16
24012;PMS7003;12220;50.194;18.948;2023-11-22T08:13:15;38;31;18
24012;PMS7003;12220;50.194;18.948;2023-11-22T08:15:20;36;29;16
24012;PMS7003;12220;50.194;18.948;2023-11-22T08:17:22;29;25;14
24012;PMS7003;12220;50.194;18.948;2023-11-22T08:19:25;19;19;13
24012;PMS7003;12220;50.194;18.948;2023-11-22T08:21:33;23;20;11
24012;PMS7003;12220;50.194;18.948;2023-11-22T08:23:35;33;24;13
24012;PMS7003;12220;50.194;18.948;2023-11-22T08:25:37;27;25;14
24012;PMS7003;12220;50.194;18.948;2023-11-22T08:27:40;22;17;12
24012;PMS7003;12220;50.194;18.948;2023-11-22T08:29:43;20;18;10
24012;PMS7003;12220;50.194;18.948;2023-11-22T08:31:48;18;17;11
24012;PMS7003;12220;50.194;18.948;2023-11-22T08:33:51;21;19;13
24012;PMS7003;12220;50.194;18.948;2023-11-22T08:35:56;21;19;12
24012;PMS7003;12220;50.194;18.948;2023-11-22T08:38:03;18;16;10
24012;PMS7003;12220;50.194;18.948;2023-11-22T08:40:10;17;15;11
24012;PMS7003;12220;50.194;18.948;2023-11-22T08:42:20;19;17;11
24012;PMS7003;12220;50.194;18.948;2023-11-22T08:44:24;27;20;12
24012;PMS7003;12220;50.194;18.948;2023-11-22T08:46:36;22;15;8
24012;PMS7003;12220;50.194;18.948;2023-11-22T08:48:37;18;15;10
24012;PMS7003;12220;50.194;18.948;2023-11-22T08:50:39;15;13;8
24012;PMS7003;12220;50.194;18.948;2023-11-22T08:52:40;24;21;15
24012;PMS7003;12220;50.194;18.948;2023-11-22T08:54:51;19;16;10
24012;PMS7003;12220;50.194;18.948;2023-11-22T08:56:52;25;18;11
24012;PMS7003;12220;50.194;18.948;2023-11-22T08:58:57;18;14;8
24012;PMS7003;12220;50.194;18.948;2023-11-22T09:00:58;30;24;12
24012;PMS7003;12220;50.194;18.948;2023-11-22T09:03:06;17;17;13
24012;PMS7003;12220;50.194;18.948;2023-11-22T09:05:08;23;17;9
24012;PMS7003;12220;50.194;18.948;2023-11-22T09:07:10;24;19;12
24012;PMS7003;12220;50.194;18.948;2023-11-22T09:09:11;25;21;12
24012;PMS7003;12220;50.194;18.948;2023-11-22T09:11:21;17;16;11
24012;PMS7003;12220;50.194;18.948;2023-11-22T09:13:23;27;22;14
24012;PMS7003;12220;50.194;18.948;2023-11-22T09:15:25;18;17;10
24012;PMS7003;12220;50.194;18.948;2023-11-22T09:17:30;21;18;9
24012;PMS7003;12220;50.194;18.948;2023-11-22T09:19:36;23;21;12
24012;PMS7003;12220;50.194;18.948;2023-11-22T09:21:38;21;17;10
24012;PMS7003;12220;50.194;18.948;2023-11-22T09:23:39;21;17;10
24012;PMS7003;12220;50.194;18.948;2023-11-22T09:25:41;21;21;14
24012;PMS7003;12220;50.194;18.948;2023-11-22T09:27:53;24;20;8
24012;PMS7003;12220;50.194;18.948;2023-11-22T09:29:57;27;20;13
24012;PMS7003;12220;50.194;18.948;2023-11-22T09:32:00;19;15;11
24012;PMS7003;12220;50.194;18.948;2023-11-22T09:34:02;21;17;11
24012;PMS7003;12220;50.194;18.948;2023-11-22T09:36:08;18;15;10
24012;PMS7003;12220;50.194;18.948;2023-11-22T09:38:11;28;16;8
24012;PMS7003;12220;50.194;18.948;2023-11-22T09:40:13;18;15;10
24012;PMS7003;12220;50.194;18.948;2023-11-22T09:42:18;19;14;9
24012;PMS7003;12220;50.194;18.948;2023-11-22T09:44:22;19;16;11
24012;PMS7003;12220;50.194;18.948;2023-11-22T09:46:24;26;18;11
24012;PMS7003;12220;50.194;18.948;2023-11-22T09:48:27;20;15;10
24012;PMS7003;12220;50.194;18.948;2023-11-22T09:50:40;14;13;8
24012;PMS7003;12220;50.194;18.948;2023-11-22T09:52:49;17;16;10
24012;PMS7003;12220;50.194;18.948;2023-11-22T09:54:59;21;13;10
24012;PMS7003;12220;50.194;18.948;2023-11-22T09:57:03;16;13;6
24012;PMS7003;12220;50.194;18.948;2023-11-22T09:59:11;14;12;9
24012;PMS7003;12220;50.194;18.948;2023-11-22T10:01:15;24;17;11
24012;PMS7003;12220;50.194;18.948;2023-11-22T10:03:18;17;14;10
24012;PMS7003;12220;50.194;18.948;2023-11-22T10:05:21;12;11;8
24012;PMS7003;12220;50.194;18.948;2023-11-22T10:07:23;14;12;9
24012;PMS7003;12220;50.194;18.948;2023-11-22T10:09:26;14;12;9
24012;PMS7003;12220;50.194;18.948;2023-11-22T10:11:31;15;12;10
24012;PMS7003;12220;50.194;18.948;2023-11-22T10:13:39;12;9;5
24012;PMS7003;12220;50.194;18.948;2023-11-22T10:15:41;14;11;8
24012;PMS7003;12220;50.194;18.948;2023-11-22T10:19:58;7;6;4
24012;PMS7003;12220;50.194;18.948;2023-11-22T10:22:08;13;11;9
24012;PMS7003;12220;50.194;18.948;2023-11-22T10:24:10;16;12;9
24012;PMS7003;12220;50.194;18.948;2023-11-22T10:26:11;17;13;8
24012;PMS7003;12220;50.194;18.948;2023-11-22T10:28:16;22;15;8
24012;PMS7003;12220;50.194;18.948;2023-11-22T10:30:22;12;10;6
24012;PMS7003;12220;50.194;18.948;2023-11-22T10:32:27;9;9;7
24012;PMS7003;12220;50.194;18.948;2023-11-22T10:34:28;17;13;7
24012;PMS7003;12220;50.194;18.948;2023-11-22T10:36:30;10;10;6
24012;PMS7003;12220;50.194;18.948;2023-11-22T10:38:38;9;9;7
24012;PMS7003;12220;50.194;18.948;2023-11-22T10:40:40;10;10;7
24012;PMS7003;12220;50.194;18.948;2023-11-22T10:42:45;12;10;8
24012;PMS7003;12220;50.194;18.948;2023-11-22T10:44:56;8;8;6
24012;PMS7003;12220;50.194;18.948;2023-11-22T10:46:58;11;10;6
24012;PMS7003;12220;50.194;18.948;2023-11-22T10:49:01;9;8;6
24012;PMS7003;12220;50.194;18.948;2023-11-22T10:51:04;9;7;6
24012;PMS7003;12220;50.194;18.948;2023-11-22T10:53:07;10;8;5
24012;PMS7003;12220;50.194;18.948;2023-11-22T10:55:14;11;10;7
24012;PMS7003;12220;50.194;18.948;2023-11-22T10:57:19;10;10;6
24012;PMS7003;12220;50.194;18.948;2023-11-22T10:59:26;9;7;5
24012;PMS7003;12220;50.194;18.948;2023-11-22T11:01:29;16;10;7
24012;PMS7003;12220;50.194;18.948;2023-11-22T11:03:31;10;8;6
24012;PMS7003;12220;50.194;18.948;2023-11-22T11:05:57;9;9;7
24012;PMS7003;12220;50.194;18.948;2023-11-22T11:10:13;9;8;6
24012;PMS7003;12220;50.194;18.948;2023-11-22T11:12:15;8;8;4
24012;PMS7003;12220;50.194;18.948;2023-11-22T11:14:18;9;8;5
24012;PMS7003;12220;50.194;18.948;2023-11-22T11:16:20;7;7;5
24012;PMS7003;12220;50.194;18.948;2023-11-22T11:18:23;7;7;6
24012;PMS7003;12220;50.194;18.948;2023-11-22T11:20:25;10;9;6
24012;PMS7003;12220;50.194;18.948;2023-11-22T11:22:33;9;8;7
24012;PMS7003;12220;50.194;18.948;2023-11-22T11:24:39;8;8;6
24012;PMS7003;12220;50.194;18.948;2023-11-22T11:28:54;7;5;4
24012;PMS7003;12220;50.194;18.948;2023-11-22T11:30:56;9;8;7
24012;PMS7003;12220;50.194;18.948;2023-11-22T11:32:57;12;7;5
24012;PMS7003;12220;50.194;18.948;2023-11-22T11:34:59;8;8;6
24012;PMS7003;12220;50.194;18.948;2023-11-22T11:37:07;11;8;5
24012;PMS7003;12220;50.194;18.948;2023-11-22T11:39:14;12;12;8
24012;PMS7003;12220;50.194;18.948;2023-11-22T11:41:26;8;8;6
24012;PMS7003;12220;50.194;18.948;2023-11-22T11:45:44;11;6;5
24012;PMS7003;12220;50.194;18.948;2023-11-22T11:47:48;8;8;7
24012;PMS7003;12220;50.194;18.948;2023-11-22T11:49:50;7;7;5
24012;PMS7003;12220;50.194;18.948;2023-11-22T11:51:52;10;10;9
24012;PMS7003;12220;50.194;18.948;2023-11-22T11:53:53;12;12;9
24012;PMS7003;12220;50.194;18.948;2023-11-22T11:55:56;13;11;8
24012;PMS7003;12220;50.194;18.948;2023-11-22T11:58:05;12;10;8
24012;PMS7003;12220;50.194;18.948;2023-11-22T12:00:10;14;11;9
24012;PMS7003;12220;50.194;18.948;2023-11-22T12:02:15;12;9;7
24012;PMS7003;12220;50.194;18.948;2023-11-22T12:04:17;17;12;7
24012;PMS7003;12220;50.194;18.948;2023-11-22T12:06:20;17;13;8
24012;PMS7003;12220;50.194;18.948;2023-11-22T12:08:22;15;15;9
24012;PMS7003;12220;50.194;18.948;2023-11-22T12:10:24;14;10;7
24012;PMS7003;12220;50.194;18.948;2023-11-22T12:12:26;11;10;7
24012;PMS7003;12220;50.194;18.948;2023-11-22T12:14:34;15;12;8
24012;PMS7003;12220;50.194;18.948;2023-11-22T12:16:36;10;9;7
24012;PMS7003;12220;50.194;18.948;2023-11-22T12:18:45;10;8;6
24012;PMS7003;12220;50.194;18.948;2023-11-22T12:45:03;10;10;7
24012;PMS7003;12220;50.194;18.948;2023-11-22T12:47:05;9;8;6
24012;PMS7003;12220;50.194;18.948;2023-11-22T12:49:17;11;11;8
24012;PMS7003;12220;50.194;18.948;2023-11-22T12:51:23;15;14;8
24012;PMS7003;12220;50.194;18.948;2023-11-22T12:53:27;15;11;8
24012;PMS7003;12220;50.194;18.948;2023-11-22T12:55:29;14;13;8
24012;PMS7003;12220;50.194;18.948;2023-11-22T12:57:32;11;9;6
24012;PMS7003;12220;50.194;18.948;2023-11-22T12:59:34;10;7;6
24012;PMS7003;12220;50.194;18.948;2023-11-22T13:01:35;8;8;6
24012;PMS7003;12220;50.194;18.948;2023-11-22T13:03:37;13;11;7
24012;PMS7003;12220;50.194;18.948;2023-11-22T13:05:47;12;8;3
24012;PMS7003;12220;50.194;18.948;2023-11-22T13:07:49;13;10;8
24012;PMS7003;12220;50.194;18.948;2023-11-22T13:09:51;10;9;6
24012;PMS7003;12220;50.194;18.948;2023-11-22T13:11:53;10;9;5
24012;PMS7003;12220;50.194;18.948;2023-11-22T13:14:02;13;11;6
24012;PMS7003;12220;50.194;18.948;2023-11-22T13:16:04;11;11;8
24012;PMS7003;12220;50.194;18.948;2023-11-22T13:18:06;12;11;7
24012;PMS7003;12220;50.194;18.948;2023-11-22T13:20:09;5;5;4
24012;PMS7003;12220;50.194;18.948;2023-11-22T13:22:19;13;12;8
24012;PMS7003;12220;50.194;18.948;2023-11-22T13:24:20;12;10;7
24012;PMS7003;12220;50.194;18.948;2023-11-22T13:26:25;12;9;7
24012;PMS7003;12220;50.194;18.948;2023-11-22T13:28:29;8;8;4
24012;PMS7003;12220;50.194;18.948;2023-11-22T13:30:32;8;8;6
24012;PMS7003;12220;50.194;18.948;2023-11-22T13:32:34;11;10;8
24012;PMS7003;12220;50.194;18.948;2023-11-22T13:34:36;6;5;5
24012;PMS7003;12220;50.194;18.948;2023-11-22T13:36:38;5;4;4
24012;PMS7003;12220;50.194;18.948;2023-11-22T13:38:48;16;10;8
24012;PMS7003;12220;50.194;18.948;2023-11-22T13:40:49;7;6;5
24012;PMS7003;12220;50.194;18.948;2023-11-22T13:42:51;6;5;5
24012;PMS7003;12220;50.194;18.948;2023-11-22T13:44:53;12;7;6
24012;PMS7003;12220;50.194;18.948;2023-11-22T13:47:03;12;9;7
24012;PMS7003;12220;50.194;18.948;2023-11-22T13:49:08;9;6;4
24012;PMS7003;12220;50.194;18.948;2023-11-22T13:51:10;12;12;9
24012;PMS7003;12220;50.194;18.948;2023-11-22T13:53:12;13;10;7
24012;PMS7003;12220;50.194;18.948;2023-11-22T13:55:18;10;10;6
24012;PMS7003;12220;50.194;18.948;2023-11-22T13:59:36;13;13;10
24012;PMS7003;12220;50.194;18.948;2023-11-22T14:01:38;15;12;9
24012;PMS7003;12220;50.194;18.948;2023-11-22T14:03:41;8;8;6
24012;PMS7003;12220;50.194;18.948;2023-11-22T14:05:46;10;10;8
24012;PMS7003;12220;50.194;18.948;2023-11-22T14:07:48;13;10;7
24012;PMS7003;12220;50.194;18.948;2023-11-22T14:09:52;14;11;8
24012;PMS7003;12220;50.194;18.948;2023-11-22T14:11:56;10;10;8
24012;PMS7003;12220;50.194;18.948;2023-11-22T14:13:58;15;13;7
24012;PMS7003;12220;50.194;18.948;2023-11-22T14:16:04;12;12;7
24012;PMS7003;12220;50.194;18.948;2023-11-22T14:18:06;15;13;7
24012;PMS7003;12220;50.194;18.948;2023-11-22T14:20:12;10;9;6
24012;PMS7003;12220;50.194;18.948;2023-11-22T14:22:14;15;11;8
24012;PMS7003;12220;50.194;18.948;2023-11-22T14:24:15;22;14;10
24012;PMS7003;12220;50.194;18.948;2023-11-22T14:26:18;15;12;9
24012;PMS7003;12220;50.194;18.948;2023-11-22T14:28:26;12;9;6
24012;PMS7003;12220;50.194;18.948;2023-11-22T14:30:29;15;14;10
24012;PMS7003;12220;50.194;18.948;2023-11-22T14:32:37;17;15;11
24012;PMS7003;12220;50.194;18.948;2023-11-22T14:34:43;17;17;11
24012;PMS7003;12220;50.194;18.948;2023-11-22T14:36:44;15;13;10
24012;PMS7003;12220;50.194;18.948;2023-11-22T14:38:46;14;12;9
24012;PMS7003;12220;50.194;18.948;2023-11-22T14:40:54;19;15;8
24012;PMS7003;12220;50.194;18.948;2023-11-22T14:42:58;16;16;11
24012;PMS7003;12220;50.194;18.948;2023-11-22T14:45:00;15;14;10
24012;PMS7003;12220;50.194;18.948;2023-11-22T15:13:58;14;12;10
24012;PMS7003;12220;50.194;18.948;2023-11-22T15:15:59;16;12;9
24012;PMS7003;12220;50.194;18.948;2023-11-22T15:18:09;15;9;7
24012;PMS7003;12220;50.194;18.948;2023-11-22T15:20:11;14;11;7
24012;PMS7003;12220;50.194;18.948;2023-11-22T15:22:16;12;8;5
24012;PMS7003;12220;50.194;18.948;2023-11-22T15:24:17;15;12;9
24012;PMS7003;12220;50.194;18.948;2023-11-22T15:26:24;8;8;5
24012;PMS7003;12220;50.194;18.948;2023-11-22T15:28:27;12;10;8
24012;PMS7003;12220;50.194;18.948;2023-11-22T15:30:30;9;9;7
24012;PMS7003;12220;50.194;18.948;2023-11-22T15:32:32;12;11;7
24012;PMS7003;12220;50.194;18.948;2023-11-22T15:34:39;10;5;4
24012;PMS7003;12220;50.194;18.948;2023-11-22T15:36:41;18;11;8
24012;PMS7003;12220;50.194;18.948;2023-11-22T15:38:42;14;10;6
24012;PMS7003;12220;50.194;18.948;2023-11-22T15:40:44;17;10;8
24012;PMS7003;12220;50.194;18.948;2023-11-22T15:42:55;10;9;6
24012;PMS7003;12220;50.194;18.948;2023-11-22T15:44:56;13;11;7
24012;PMS7003;12220;50.194;18.948;2023-11-22T15:46:57;9;9;8
24012;PMS7003;12220;50.194;18.948;2023-11-22T15:48:59;9;8;5
24012;PMS7003;12220;50.194;18.948;2023-11-22T15:51:10;14;11;7
24012;PMS7003;12220;50.194;18.948;2023-11-22T15:53:17;14;13;9
24012;PMS7003;12220;50.194;18.948;2023-11-22T15:55:19;11;10;9
24012;PMS7003;12220;50.194;18.948;2023-11-22T15:57:20;9;8;6
24012;PMS7003;12220;50.194;18.948;2023-11-22T15:59:25;14;13;8
24012;PMS7003;12220;50.194;18.948;2023-11-22T16:01:26;12;10;8
24012;PMS7003;12220;50.194;18.948;2023-11-22T16:03:29;10;8;6
24012;PMS7003;12220;50.194;18.948;2023-11-22T16:05:33;14;12;9
24012;PMS7003;12220;50.194;18.948;2023-11-22T16:07:40;10;9;7
24012;PMS7003;12220;50.194;18.948;2023-11-22T16:09:42;19;15;9
24012;PMS7003;12220;50.194;18.948;2023-11-22T16:11:44;11;10;8
24012;PMS7003;12220;50.194;18.948;2023-11-22T16:13:46;10;10;6
24012;PMS7003;12220;50.194;18.948;2023-11-22T16:15:55;12;9;6
24012;PMS7003;12220;50.194;18.948;2023-11-22T16:18:00;12;11;8
24012;PMS7003;12220;50.194;18.948;2023-11-22T16:20:02;15;11;8
24012;PMS7003;12220;50.194;18.948;2023-11-22T16:22:15;14;14;10
24012;PMS7003;12220;50.194;18.948;2023-11-22T16:24:16;16;13;10
24012;PMS7003;12220;50.194;18.948;2023-11-22T16:26:18;17;13;9
24012;PMS7003;12220;50.194;18.948;2023-11-22T16:28:20;13;11;9
24012;PMS7003;12220;50.194;18.948;2023-11-22T16:30:22;14;12;9
24012;PMS7003;12220;50.194;18.948;2023-11-22T16:32:25;19;14;11
24012;PMS7003;12220;50.194;18.948;2023-11-22T16:34:27;13;13;10
24012;PMS7003;12220;50.194;18.948;2023-11-22T16:36:29;22;16;11
24012;PMS7003;12220;50.194;18.948;2023-11-22T16:38:31;16;15;10
24012;PMS7003;12220;50.194;18.948;2023-11-22T16:40:40;17;15;10
24012;PMS7003;12220;50.194;18.948;2023-11-22T16:42:42;21;19;10
24012;PMS7003;12220;50.194;18.948;2023-11-22T16:44:44;13;12;9
24012;PMS7003;12220;50.194;18.948;2023-11-22T16:46:48;14;12;9
24012;PMS7003;12220;50.194;18.948;2023-11-22T16:48:55;9;7;5
24012;PMS7003;12220;50.194;18.948;2023-11-22T16:50:57;11;10;6
24012;PMS7003;12220;50.194;18.948;2023-11-22T16:52:59;20;14;10
24012;PMS7003;12220;50.194;18.948;2023-11-22T16:55:01;13;13;8
24012;PMS7003;12220;50.194;18.948;2023-11-22T16:57:11;7;7;5
24012;PMS7003;12220;50.194;18.948;2023-11-22T16:59:15;17;11;8
24012;PMS7003;12220;50.194;18.948;2023-11-22T17:01:17;11;11;9
24012;PMS7003;12220;50.194;18.948;2023-11-22T17:03:21;15;11;6
24012;PMS7003;12220;50.194;18.948;2023-11-22T17:05:26;17;16;9
24012;PMS7003;12220;50.194;18.948;2023-11-22T17:07:27;16;14;10
24012;PMS7003;12220;50.194;18.948;2023-11-22T17:09:30;17;12;7
24012;PMS7003;12220;50.194;18.948;2023-11-22T17:11:31;12;12;8
24012;PMS7003;12220;50.194;18.948;2023-11-22T17:13:41;24;17;11
24012;PMS7003;12220;50.194;18.948;2023-11-22T17:15:42;18;14;9
24012;PMS7003;12220;50.194;18.948;2023-11-22T17:17:44;14;14;8
24012;PMS7003;12220;50.194;18.948;2023-11-22T17:19:45;15;15;9
24012;PMS7003;12220;50.194;18.948;2023-11-22T17:21:56;15;11;9
24012;PMS7003;12220;50.194;18.948;2023-11-22T17:23:57;13;9;7
24012;PMS7003;12220;50.194;18.948;2023-11-22T17:25:59;12;6;4
24012;PMS7003;12220;50.194;18.948;2023-11-22T17:28:00;18;17;10
24012;PMS7003;12220;50.194;18.948;2023-11-22T17:30:11;12;11;7
24012;PMS7003;12220;50.194;18.948;2023-11-22T17:32:12;14;13;9
24012;PMS7003;12220;50.194;18.948;2023-11-22T17:34:14;18;15;10
24012;PMS7003;12220;50.194;18.948;2023-11-22T17:36:16;16;12;9
24012;PMS7003;12220;50.194;18.948;2023-11-22T17:38:26;17;16;10
24012;PMS7003;12220;50.194;18.948;2023-11-22T17:40:27;18;13;10
24012;PMS7003;12220;50.194;18.948;2023-11-22T17:42:34;18;15;11
24012;PMS7003;12220;50.194;18.948;2023-11-22T17:44:36;18;16;11
24012;PMS7003;12220;50.194;18.948;2023-11-22T17:46:41;21;18;11
24012;PMS7003;12220;50.194;18.948;2023-11-22T17:48:43;17;14;9
24012;PMS7003;12220;50.194;18.948;2023-11-22T17:50:45;15;15;11
24012;PMS7003;12220;50.194;18.948;2023-11-22T17:52:46;19;16;9
24012;PMS7003;12220;50.194;18.948;2023-11-22T17:54:56;15;15;9
24012;PMS7003;12220;50.194;18.948;2023-11-22T17:57:00;22;15;11
24012;PMS7003;12220;50.194;18.948;2023-11-22T17:59:01;15;14;8
24012;PMS7003;12220;50.194;18.948;2023-11-22T18:01:06;14;13;9
24012;PMS7003;12220;50.194;18.948;2023-11-22T18:03:11;21;16;10
24012;PMS7003;12220;50.194;18.948;2023-11-22T18:05:14;23;19;12
24012;PMS7003;12220;50.194;18.948;2023-11-22T18:07:25;24;22;16
24012;PMS7003;12220;50.194;18.948;2023-11-22T18:09:27;28;23;17
24012;PMS7003;12220;50.194;18.948;2023-11-22T18:11:30;19;18;12
24012;PMS7003;12220;50.194;18.948;2023-11-22T18:13:32;24;20;12
24012;PMS7003;12220;50.194;18.948;2023-11-22T18:15:33;26;20;11